sensor_id;sensor_type;location;lat;lon;timestamp;P1;durP1;ratioP1;P2;durP2;ratioP2
42294;SDS011;27947;47.556;18.718;2023-07-02T08:54:18;6.47;;;3.67;;
42294;SDS011;27947;47.556;18.718;2023-07-02T08:56:44;4.60;;;3.40;;
42294;SDS011;27947;47.556;18.718;2023-07-02T08:59:10;5.50;;;3.33;;
42294;SDS011;27947;47.556;18.718;2023-07-02T09:01:45;4.05;;;3.25;;
42294;SDS011;27947;47.556;18.718;2023-07-02T09:04:14;4.65;;;3.33;;
42294;SDS011;27947;47.556;18.718;2023-07-02T09:06:40;5.95;;;3.03;;
42294;SDS011;27947;47.556;18.718;2023-07-02T09:09:05;6.72;;;3.42;;
42294;SDS011;27947;47.556;18.718;2023-07-02T09:11:31;5.35;;;3.30;;
42294;SDS011;27947;47.556;18.718;2023-07-02T09:13:56;5.43;;;3.28;;
42294;SDS011;27947;47.556;18.718;2023-07-02T09:21:22;6.03;;;3.33;;
42294;SDS011;27947;47.556;18.718;2023-07-02T09:23:47;6.38;;;3.10;;
42294;SDS011;27947;47.556;18.718;2023-07-02T09:26:21;4.65;;;3.65;;
42294;SDS011;27947;47.556;18.718;2023-07-02T09:28:47;8.75;;;3.28;;
42294;SDS011;27947;47.556;18.718;2023-07-02T09:31:12;6.85;;;3.25;;
42294;SDS011;27947;47.556;18.718;2023-07-02T09:33:37;6.38;;;3.30;;
42294;SDS011;27947;47.556;18.718;2023-07-02T09:36:03;5.63;;;2.80;;
42294;SDS011;27947;47.556;18.718;2023-07-02T09:38:28;7.35;;;3.85;;
42294;SDS011;27947;47.556;18.718;2023-07-02T09:40:54;3.80;;;2.95;;
42294;SDS011;27947;47.556;18.718;2023-07-02T09:43:19;8.32;;;3.67;;
42294;SDS011;27947;47.556;18.718;2023-07-02T09:45:49;4.47;;;3.00;;
42294;SDS011;27947;47.556;18.718;2023-07-02T09:48:16;6.22;;;3.63;;
42294;SDS011;27947;47.556;18.718;2023-07-02T09:50:44;4.95;;;3.53;;
42294;SDS011;27947;47.556;18.718;2023-07-02T09:53:10;6.60;;;4.20;;
42294;SDS011;27947;47.556;18.718;2023-07-02T09:55:39;6.28;;;3.65;;
42294;SDS011;27947;47.556;18.718;2023-07-02T09:58:06;4.80;;;3.33;;
42294;SDS011;27947;47.556;18.718;2023-07-02T10:00:32;5.15;;;3.53;;
42294;SDS011;27947;47.556;18.718;2023-07-02T10:02:57;5.65;;;3.30;;
42294;SDS011;27947;47.556;18.718;2023-07-02T10:05:29;12.40;;;3.47;;
42294;SDS011;27947;47.556;18.718;2023-07-02T10:07:55;7.88;;;3.47;;
42294;SDS011;27947;47.556;18.718;2023-07-02T10:10:28;4.88;;;3.40;;
42294;SDS011;27947;47.556;18.718;2023-07-02T10:12:53;9.65;;;3.42;;
42294;SDS011;27947;47.556;18.718;2023-07-02T10:15:28;7.68;;;3.10;;
42294;SDS011;27947;47.556;18.718;2023-07-02T10:17:54;9.02;;;3.40;;
42294;SDS011;27947;47.556;18.718;2023-07-02T10:20:30;12.82;;;3.40;;
42294;SDS011;27947;47.556;18.718;2023-07-02T10:22:55;7.53;;;3.30;;
42294;SDS011;27947;47.556;18.718;2023-07-02T10:27:50;8.98;;;3.33;;
42294;SDS011;27947;47.556;18.718;2023-07-02T10:30:15;6.10;;;3.55;;
42294;SDS011;27947;47.556;18.718;2023-07-02T10:32:41;6.38;;;3.92;;
42294;SDS011;27947;47.556;18.718;2023-07-02T10:35:13;9.65;;;4.57;;
42294;SDS011;27947;47.556;18.718;2023-07-02T10:37:38;10.18;;;6.07;;
42294;SDS011;27947;47.556;18.718;2023-07-02T10:40:05;5.43;;;3.53;;
42294;SDS011;27947;47.556;18.718;2023-07-02T10:42:31;5.80;;;3.13;;
42294;SDS011;27947;47.556;18.718;2023-07-02T10:44:59;4.90;;;3.20;;
42294;SDS011;27947;47.556;18.718;2023-07-02T10:47:24;6.57;;;3.58;;
42294;SDS011;27947;47.556;18.718;2023-07-02T10:49:49;5.45;;;2.88;;
42294;SDS011;27947;47.556;18.718;2023-07-02T10:52:15;3.85;;;3.28;;
42294;SDS011;27947;47.556;18.718;2023-07-02T10:54:41;5.47;;;3.17;;
42294;SDS011;27947;47.556;18.718;2023-07-02T10:57:10;6.43;;;3.78;;
42294;SDS011;27947;47.556;18.718;2023-07-02T10:59:35;5.45;;;3.33;;
42294;SDS011;27947;47.556;18.718;2023-07-02T11:02:00;6.70;;;3.10;;
42294;SDS011;27947;47.556;18.718;2023-07-02T11:04:27;5.75;;;2.92;;
42294;SDS011;27947;47.556;18.718;2023-07-02T11:06:52;7.10;;;3.53;;
42294;SDS011;27947;47.556;18.718;2023-07-02T11:09:18;28.25;;;5.45;;
42294;SDS011;27947;47.556;18.718;2023-07-02T11:11:53;8.77;;;4.15;;
42294;SDS011;27947;47.556;18.718;2023-07-02T11:14:34;9.50;;;3.42;;
42294;SDS011;27947;47.556;18.718;2023-07-02T11:17:02;8.73;;;3.65;;
42294;SDS011;27947;47.556;18.718;2023-07-02T11:19:28;5.90;;;3.83;;
42294;SDS011;27947;47.556;18.718;2023-07-02T11:21:54;11.65;;;4.00;;
42294;SDS011;27947;47.556;18.718;2023-07-02T11:24:33;7.20;;;2.85;;
42294;SDS011;27947;47.556;18.718;2023-07-02T11:26:59;4.93;;;2.70;;
42294;SDS011;27947;47.556;18.718;2023-07-02T11:29:25;6.85;;;3.45;;
42294;SDS011;27947;47.556;18.718;2023-07-02T11:31:50;7.93;;;3.83;;
42294;SDS011;27947;47.556;18.718;2023-07-02T11:34:16;6.95;;;3.72;;
42294;SDS011;27947;47.556;18.718;2023-07-02T11:36:42;16.73;;;4.25;;
42294;SDS011;27947;47.556;18.718;2023-07-02T11:39:07;4.97;;;2.78;;
42294;SDS011;27947;47.556;18.718;2023-07-02T11:41:36;17.75;;;4.95;;
42294;SDS011;27947;47.556;18.718;2023-07-02T11:44:01;11.38;;;4.32;;
42294;SDS011;27947;47.556;18.718;2023-07-02T11:46:27;21.75;;;5.63;;
42294;SDS011;27947;47.556;18.718;2023-07-02T11:48:52;20.15;;;6.03;;
42294;SDS011;27947;47.556;18.718;2023-07-02T11:51:17;10.38;;;4.20;;
42294;SDS011;27947;47.556;18.718;2023-07-02T11:53:43;10.50;;;3.47;;
42294;SDS011;27947;47.556;18.718;2023-07-02T11:56:09;7.43;;;3.03;;
42294;SDS011;27947;47.556;18.718;2023-07-02T11:58:34;7.57;;;2.83;;
42294;SDS011;27947;47.556;18.718;2023-07-02T12:01:00;7.40;;;2.92;;
42294;SDS011;27947;47.556;18.718;2023-07-02T12:03:25;7.28;;;2.53;;
42294;SDS011;27947;47.556;18.718;2023-07-02T12:05:51;5.07;;;2.42;;
42294;SDS011;27947;47.556;18.718;2023-07-02T12:08:16;3.13;;;2.25;;
42294;SDS011;27947;47.556;18.718;2023-07-02T12:10:42;7.18;;;2.65;;
42294;SDS011;27947;47.556;18.718;2023-07-02T12:13:07;5.45;;;2.38;;
42294;SDS011;27947;47.556;18.718;2023-07-02T12:15:32;2.97;;;2.20;;
42294;SDS011;27947;47.556;18.718;2023-07-02T12:17:58;4.25;;;2.47;;
42294;SDS011;27947;47.556;18.718;2023-07-02T12:20:23;4.93;;;2.85;;
42294;SDS011;27947;47.556;18.718;2023-07-02T12:22:48;6.75;;;2.50;;
42294;SDS011;27947;47.556;18.718;2023-07-02T12:25:14;4.70;;;2.15;;
42294;SDS011;27947;47.556;18.718;2023-07-02T12:27:39;3.00;;;2.50;;
42294;SDS011;27947;47.556;18.718;2023-07-02T12:30:06;3.80;;;2.13;;
42294;SDS011;27947;47.556;18.718;2023-07-02T12:32:31;10.25;;;2.30;;
42294;SDS011;27947;47.556;18.718;2023-07-02T12:34:57;6.93;;;2.35;;
42294;SDS011;27947;47.556;18.718;2023-07-02T12:37:22;4.75;;;2.30;;
42294;SDS011;27947;47.556;18.718;2023-07-02T12:39:48;3.05;;;1.77;;
42294;SDS011;27947;47.556;18.718;2023-07-02T12:42:13;2.40;;;1.38;;
42294;SDS011;27947;47.556;18.718;2023-07-02T12:44:38;5.80;;;1.80;;
42294;SDS011;27947;47.556;18.718;2023-07-02T12:47:04;2.42;;;1.70;;
42294;SDS011;27947;47.556;18.718;2023-07-02T12:49:29;1.52;;;1.27;;
42294;SDS011;27947;47.556;18.718;2023-07-02T12:51:54;1.63;;;1.10;;
42294;SDS011;27947;47.556;18.718;2023-07-02T12:54:20;2.85;;;1.30;;
42294;SDS011;27947;47.556;18.718;2023-07-02T12:56:45;1.27;;;1.10;;
42294;SDS011;27947;47.556;18.718;2023-07-02T12:59:10;3.90;;;1.20;;
42294;SDS011;27947;47.556;18.718;2023-07-02T13:01:36;2.03;;;1.30;;
42294;SDS011;27947;47.556;18.718;2023-07-02T13:04:01;6.40;;;1.40;;
42294;SDS011;27947;47.556;18.718;2023-07-02T13:06:28;6.32;;;1.08;;
42294;SDS011;27947;47.556;18.718;2023-07-02T13:08:54;2.53;;;1.17;;
42294;SDS011;27947;47.556;18.718;2023-07-02T13:11:21;2.25;;;1.30;;
42294;SDS011;27947;47.556;18.718;2023-07-02T13:13:46;4.15;;;1.23;;
42294;SDS011;27947;47.556;18.718;2023-07-02T13:16:11;2.83;;;1.55;;
42294;SDS011;27947;47.556;18.718;2023-07-02T13:18:37;3.17;;;1.40;;
42294;SDS011;27947;47.556;18.718;2023-07-02T13:21:02;2.85;;;1.33;;
42294;SDS011;27947;47.556;18.718;2023-07-02T13:23:27;14.95;;;2.50;;
42294;SDS011;27947;47.556;18.718;2023-07-02T13:25:53;3.88;;;1.40;;
42294;SDS011;27947;47.556;18.718;2023-07-02T13:28:18;3.88;;;1.50;;
42294;SDS011;27947;47.556;18.718;2023-07-02T13:30:46;8.63;;;2.75;;
42294;SDS011;27947;47.556;18.718;2023-07-02T13:33:11;6.70;;;1.50;;
42294;SDS011;27947;47.556;18.718;2023-07-02T13:35:36;8.40;;;1.33;;
42294;SDS011;27947;47.556;18.718;2023-07-02T13:38:03;3.38;;;1.50;;
42294;SDS011;27947;47.556;18.718;2023-07-02T13:40:30;8.60;;;1.60;;
42294;SDS011;27947;47.556;18.718;2023-07-02T13:42:55;4.80;;;1.30;;
42294;SDS011;27947;47.556;18.718;2023-07-02T13:45:21;8.93;;;1.60;;
42294;SDS011;27947;47.556;18.718;2023-07-02T13:47:46;6.88;;;1.63;;
42294;SDS011;27947;47.556;18.718;2023-07-02T13:50:11;3.60;;;1.55;;
42294;SDS011;27947;47.556;18.718;2023-07-02T13:52:37;6.80;;;1.55;;
42294;SDS011;27947;47.556;18.718;2023-07-02T13:55:03;1.48;;;1.30;;
42294;SDS011;27947;47.556;18.718;2023-07-02T13:57:28;18.20;;;2.05;;
42294;SDS011;27947;47.556;18.718;2023-07-02T13:59:53;4.53;;;1.40;;
42294;SDS011;27947;47.556;18.718;2023-07-02T14:02:20;1.38;;;1.23;;
42294;SDS011;27947;47.556;18.718;2023-07-02T14:04:45;6.07;;;1.58;;
42294;SDS011;27947;47.556;18.718;2023-07-02T14:07:11;4.53;;;1.48;;
42294;SDS011;27947;47.556;18.718;2023-07-02T14:09:36;3.45;;;1.40;;
42294;SDS011;27947;47.556;18.718;2023-07-02T14:12:02;80.97;;;3.58;;
42294;SDS011;27947;47.556;18.718;2023-07-02T14:14:28;3.83;;;1.42;;
42294;SDS011;27947;47.556;18.718;2023-07-02T14:16:53;2.45;;;1.50;;
42294;SDS011;27947;47.556;18.718;2023-07-02T14:19:18;3.08;;;1.50;;
42294;SDS011;27947;47.556;18.718;2023-07-02T14:21:44;3.33;;;1.20;;
42294;SDS011;27947;47.556;18.718;2023-07-02T14:24:11;6.88;;;1.80;;
42294;SDS011;27947;47.556;18.718;2023-07-02T14:26:37;3.83;;;1.40;;
42294;SDS011;27947;47.556;18.718;2023-07-02T14:29:02;2.42;;;1.50;;
42294;SDS011;27947;47.556;18.718;2023-07-02T14:31:27;2.70;;;1.35;;
42294;SDS011;27947;47.556;18.718;2023-07-02T14:33:53;3.88;;;1.30;;
42294;SDS011;27947;47.556;18.718;2023-07-02T14:36:18;2.33;;;1.50;;
42294;SDS011;27947;47.556;18.718;2023-07-02T14:38:44;2.85;;;1.42;;
42294;SDS011;27947;47.556;18.718;2023-07-02T14:41:09;1.33;;;1.20;;
42294;SDS011;27947;47.556;18.718;2023-07-02T14:43:34;1.75;;;1.50;;
42294;SDS011;27947;47.556;18.718;2023-07-02T14:46:00;4.35;;;1.60;;
42294;SDS011;27947;47.556;18.718;2023-07-02T14:48:26;5.05;;;1.65;;
42294;SDS011;27947;47.556;18.718;2023-07-02T14:51:01;3.97;;;1.42;;
42294;SDS011;27947;47.556;18.718;2023-07-02T14:53:28;1.40;;;1.30;;
42294;SDS011;27947;47.556;18.718;2023-07-02T14:55:55;4.32;;;1.40;;
42294;SDS011;27947;47.556;18.718;2023-07-02T14:58:21;3.15;;;1.23;;
42294;SDS011;27947;47.556;18.718;2023-07-02T15:00:47;2.50;;;1.38;;
42294;SDS011;27947;47.556;18.718;2023-07-02T15:03:12;3.72;;;1.70;;
42294;SDS011;27947;47.556;18.718;2023-07-02T15:05:38;2.58;;;1.40;;
42294;SDS011;27947;47.556;18.718;2023-07-02T15:08:04;5.28;;;1.83;;
42294;SDS011;27947;47.556;18.718;2023-07-02T15:10:29;3.35;;;1.90;;
42294;SDS011;27947;47.556;18.718;2023-07-02T15:12:55;3.53;;;1.33;;
42294;SDS011;27947;47.556;18.718;2023-07-02T15:15:20;2.17;;;1.60;;
42294;SDS011;27947;47.556;18.718;2023-07-02T15:17:46;2.30;;;1.73;;
42294;SDS011;27947;47.556;18.718;2023-07-02T15:20:12;14.93;;;2.58;;
42294;SDS011;27947;47.556;18.718;2023-07-02T15:22:37;4.40;;;1.80;;
42294;SDS011;27947;47.556;18.718;2023-07-02T15:25:02;2.90;;;2.08;;
42294;SDS011;27947;47.556;18.718;2023-07-02T15:27:28;5.45;;;1.83;;
42294;SDS011;27947;47.556;18.718;2023-07-02T15:29:53;4.05;;;2.20;;
42294;SDS011;27947;47.556;18.718;2023-07-02T15:32:18;9.15;;;2.35;;
42294;SDS011;27947;47.556;18.718;2023-07-02T15:34:44;4.30;;;1.80;;
42294;SDS011;27947;47.556;18.718;2023-07-02T15:37:09;4.82;;;2.10;;
42294;SDS011;27947;47.556;18.718;2023-07-02T15:39:34;3.67;;;2.00;;
42294;SDS011;27947;47.556;18.718;2023-07-02T15:42:00;4.75;;;1.67;;
42294;SDS011;27947;47.556;18.718;2023-07-02T15:44:26;12.73;;;2.20;;
42294;SDS011;27947;47.556;18.718;2023-07-02T15:46:51;2.00;;;1.75;;
42294;SDS011;27947;47.556;18.718;2023-07-02T15:49:16;4.80;;;2.63;;
42294;SDS011;27947;47.556;18.718;2023-07-02T15:51:42;5.05;;;2.00;;
42294;SDS011;27947;47.556;18.718;2023-07-02T15:54:07;4.70;;;1.80;;
42294;SDS011;27947;47.556;18.718;2023-07-02T15:56:33;1.63;;;1.30;;
42294;SDS011;27947;47.556;18.718;2023-07-02T15:59:02;2.22;;;1.65;;
42294;SDS011;27947;47.556;18.718;2023-07-02T16:01:28;4.68;;;1.80;;
42294;SDS011;27947;47.556;18.718;2023-07-02T16:03:53;2.35;;;1.45;;
42294;SDS011;27947;47.556;18.718;2023-07-02T16:06:19;5.28;;;1.50;;
42294;SDS011;27947;47.556;18.718;2023-07-02T16:08:44;3.13;;;1.40;;
42294;SDS011;27947;47.556;18.718;2023-07-02T16:11:10;3.42;;;1.50;;
42294;SDS011;27947;47.556;18.718;2023-07-02T16:13:37;3.03;;;1.42;;
42294;SDS011;27947;47.556;18.718;2023-07-02T16:16:03;2.20;;;1.30;;
42294;SDS011;27947;47.556;18.718;2023-07-02T16:18:29;3.70;;;2.00;;
42294;SDS011;27947;47.556;18.718;2023-07-02T16:21:01;3.88;;;1.80;;
42294;SDS011;27947;47.556;18.718;2023-07-02T16:23:26;1.90;;;1.60;;
42294;SDS011;27947;47.556;18.718;2023-07-02T16:25:55;1.55;;;1.38;;
42294;SDS011;27947;47.556;18.718;2023-07-02T16:28:21;2.25;;;1.40;;
42294;SDS011;27947;47.556;18.718;2023-07-02T16:30:46;3.17;;;1.55;;
42294;SDS011;27947;47.556;18.718;2023-07-02T16:33:13;2.45;;;1.40;;
42294;SDS011;27947;47.556;18.718;2023-07-02T16:35:38;1.50;;;1.30;;
42294;SDS011;27947;47.556;18.718;2023-07-02T16:38:03;2.83;;;1.50;;
42294;SDS011;27947;47.556;18.718;2023-07-02T16:40:30;6.35;;;1.75;;
42294;SDS011;27947;47.556;18.718;2023-07-02T16:42:55;2.97;;;1.40;;
42294;SDS011;27947;47.556;18.718;2023-07-02T16:45:21;1.83;;;1.50;;
42294;SDS011;27947;47.556;18.718;2023-07-02T16:47:46;3.75;;;1.90;;
42294;SDS011;27947;47.556;18.718;2023-07-02T16:50:11;4.38;;;1.80;;
42294;SDS011;27947;47.556;18.718;2023-07-02T16:52:37;3.55;;;2.10;;
42294;SDS011;27947;47.556;18.718;2023-07-02T16:55:02;10.60;;;2.25;;
42294;SDS011;27947;47.556;18.718;2023-07-02T16:57:27;5.07;;;1.95;;
42294;SDS011;27947;47.556;18.718;2023-07-02T16:59:53;5.57;;;2.30;;
42294;SDS011;27947;47.556;18.718;2023-07-02T17:02:18;4.97;;;2.10;;
42294;SDS011;27947;47.556;18.718;2023-07-02T17:04:44;3.53;;;1.83;;
42294;SDS011;27947;47.556;18.718;2023-07-02T17:07:09;2.85;;;1.80;;
42294;SDS011;27947;47.556;18.718;2023-07-02T17:09:35;4.70;;;1.90;;
42294;SDS011;27947;47.556;18.718;2023-07-02T17:12:09;4.00;;;1.75;;
42294;SDS011;27947;47.556;18.718;2023-07-02T17:14:36;3.00;;;1.55;;
42294;SDS011;27947;47.556;18.718;2023-07-02T17:17:04;5.25;;;1.70;;
42294;SDS011;27947;47.556;18.718;2023-07-02T17:19:31;4.13;;;1.90;;
42294;SDS011;27947;47.556;18.718;2023-07-02T17:22:00;6.88;;;2.20;;
42294;SDS011;27947;47.556;18.718;2023-07-02T17:24:27;4.78;;;2.00;;
42294;SDS011;27947;47.556;18.718;2023-07-02T17:26:53;2.28;;;1.52;;
42294;SDS011;27947;47.556;18.718;2023-07-02T17:29:18;4.82;;;1.70;;
42294;SDS011;27947;47.556;18.718;2023-07-02T17:31:44;7.15;;;1.73;;
42294;SDS011;27947;47.556;18.718;2023-07-02T17:34:12;4.90;;;1.60;;
42294;SDS011;27947;47.556;18.718;2023-07-02T17:36:40;2.85;;;1.77;;
42294;SDS011;27947;47.556;18.718;2023-07-02T17:39:05;8.80;;;1.60;;
42294;SDS011;27947;47.556;18.718;2023-07-02T17:41:31;10.27;;;1.95;;
42294;SDS011;27947;47.556;18.718;2023-07-02T17:43:56;2.97;;;1.50;;
42294;SDS011;27947;47.556;18.718;2023-07-02T17:46:21;1.83;;;1.27;;
42294;SDS011;27947;47.556;18.718;2023-07-02T17:48:46;3.22;;;1.45;;
42294;SDS011;27947;47.556;18.718;2023-07-02T17:51:12;5.38;;;1.25;;
42294;SDS011;27947;47.556;18.718;2023-07-02T17:53:37;3.78;;;1.30;;
42294;SDS011;27947;47.556;18.718;2023-07-02T17:56:02;4.75;;;1.30;;
42294;SDS011;27947;47.556;18.718;2023-07-02T17:58:28;2.08;;;1.17;;
42294;SDS011;27947;47.556;18.718;2023-07-02T18:00:53;4.10;;;1.38;;
42294;SDS011;27947;47.556;18.718;2023-07-02T18:03:19;4.47;;;1.20;;
42294;SDS011;27947;47.556;18.718;2023-07-02T18:05:44;6.55;;;1.10;;
42294;SDS011;27947;47.556;18.718;2023-07-02T18:08:09;16.90;;;2.05;;
42294;SDS011;27947;47.556;18.718;2023-07-02T18:10:35;5.88;;;1.33;;
42294;SDS011;27947;47.556;18.718;2023-07-02T18:13:00;16.52;;;1.60;;
42294;SDS011;27947;47.556;18.718;2023-07-02T18:15:25;2.95;;;1.10;;
42294;SDS011;27947;47.556;18.718;2023-07-02T18:17:51;0.98;;;0.80;;
42294;SDS011;27947;47.556;18.718;2023-07-02T18:20:16;2.45;;;1.17;;
42294;SDS011;27947;47.556;18.718;2023-07-02T18:22:41;5.80;;;1.30;;
42294;SDS011;27947;47.556;18.718;2023-07-02T18:25:07;7.45;;;1.20;;
42294;SDS011;27947;47.556;18.718;2023-07-02T18:27:32;2.03;;;1.30;;
42294;SDS011;27947;47.556;18.718;2023-07-02T18:29:58;2.60;;;1.20;;
42294;SDS011;27947;47.556;18.718;2023-07-02T18:32:23;2.25;;;1.50;;
42294;SDS011;27947;47.556;18.718;2023-07-02T18:34:54;2.53;;;1.20;;
42294;SDS011;27947;47.556;18.718;2023-07-02T18:37:19;7.75;;;1.42;;
42294;SDS011;27947;47.556;18.718;2023-07-02T18:39:45;4.20;;;1.60;;
42294;SDS011;27947;47.556;18.718;2023-07-02T18:42:10;2.80;;;1.30;;
42294;SDS011;27947;47.556;18.718;2023-07-02T18:44:36;3.13;;;1.40;;
42294;SDS011;27947;47.556;18.718;2023-07-02T18:47:06;3.10;;;1.55;;
42294;SDS011;27947;47.556;18.718;2023-07-02T18:49:31;5.22;;;1.48;;
42294;SDS011;27947;47.556;18.718;2023-07-02T18:52:04;2.25;;;1.30;;
42294;SDS011;27947;47.556;18.718;2023-07-02T18:54:30;4.80;;;1.58;;
42294;SDS011;27947;47.556;18.718;2023-07-02T18:56:57;10.23;;;1.90;;
42294;SDS011;27947;47.556;18.718;2023-07-02T18:59:23;4.80;;;1.65;;
42294;SDS011;27947;47.556;18.718;2023-07-02T19:01:48;3.15;;;1.80;;
42294;SDS011;27947;47.556;18.718;2023-07-02T19:04:14;3.72;;;1.73;;
42294;SDS011;27947;47.556;18.718;2023-07-02T19:06:40;4.60;;;1.50;;
42294;SDS011;27947;47.556;18.718;2023-07-02T19:09:05;3.35;;;1.42;;
42294;SDS011;27947;47.556;18.718;2023-07-02T19:11:30;3.70;;;1.63;;
42294;SDS011;27947;47.556;18.718;2023-07-02T19:13:56;2.95;;;1.45;;
42294;SDS011;27947;47.556;18.718;2023-07-02T19:16:21;5.45;;;1.50;;
42294;SDS011;27947;47.556;18.718;2023-07-02T19:18:46;2.85;;;1.52;;
42294;SDS011;27947;47.556;18.718;2023-07-02T19:21:12;3.58;;;1.77;;
42294;SDS011;27947;47.556;18.718;2023-07-02T19:23:39;2.80;;;1.58;;
42294;SDS011;27947;47.556;18.718;2023-07-02T19:26:04;2.97;;;1.50;;
42294;SDS011;27947;47.556;18.718;2023-07-02T19:28:30;4.00;;;1.70;;
42294;SDS011;27947;47.556;18.718;2023-07-02T19:30:56;2.60;;;1.60;;
42294;SDS011;27947;47.556;18.718;2023-07-02T19:33:22;3.05;;;2.03;;
42294;SDS011;27947;47.556;18.718;2023-07-02T19:35:48;2.92;;;1.65;;
42294;SDS011;27947;47.556;18.718;2023-07-02T19:38:15;5.85;;;2.42;;
42294;SDS011;27947;47.556;18.718;2023-07-02T19:40:40;5.85;;;1.77;;
42294;SDS011;27947;47.556;18.718;2023-07-02T19:43:05;3.08;;;1.88;;
42294;SDS011;27947;47.556;18.718;2023-07-02T19:45:31;3.45;;;1.95;;
42294;SDS011;27947;47.556;18.718;2023-07-02T19:47:56;4.57;;;1.88;;
42294;SDS011;27947;47.556;18.718;2023-07-02T19:50:21;5.70;;;1.83;;
42294;SDS011;27947;47.556;18.718;2023-07-02T19:52:47;6.25;;;2.03;;
42294;SDS011;27947;47.556;18.718;2023-07-02T19:55:12;7.85;;;1.90;;
42294;SDS011;27947;47.556;18.718;2023-07-02T19:57:40;3.40;;;1.85;;
42294;SDS011;27947;47.556;18.718;2023-07-02T20:00:06;4.03;;;2.05;;
42294;SDS011;27947;47.556;18.718;2023-07-02T20:02:36;4.43;;;1.98;;
42294;SDS011;27947;47.556;18.718;2023-07-02T20:05:02;5.15;;;2.22;;
42294;SDS011;27947;47.556;18.718;2023-07-02T20:07:29;4.60;;;2.20;;
42294;SDS011;27947;47.556;18.718;2023-07-02T20:09:55;5.90;;;1.90;;
42294;SDS011;27947;47.556;18.718;2023-07-02T20:12:20;5.05;;;2.30;;
42294;SDS011;27947;47.556;18.718;2023-07-02T20:14:47;3.42;;;2.00;;
42294;SDS011;27947;47.556;18.718;2023-07-02T20:17:13;3.97;;;2.05;;
42294;SDS011;27947;47.556;18.718;2023-07-02T20:19:39;4.75;;;2.30;;
42294;SDS011;27947;47.556;18.718;2023-07-02T20:22:05;3.97;;;1.92;;
42294;SDS011;27947;47.556;18.718;2023-07-02T20:24:33;4.28;;;2.08;;
42294;SDS011;27947;47.556;18.718;2023-07-02T20:26:59;4.47;;;2.25;;
42294;SDS011;27947;47.556;18.718;2023-07-02T20:29:24;5.28;;;2.30;;
42294;SDS011;27947;47.556;18.718;2023-07-02T20:31:50;3.65;;;2.50;;
42294;SDS011;27947;47.556;18.718;2023-07-02T20:34:19;3.22;;;2.20;;
42294;SDS011;27947;47.556;18.718;2023-07-02T20:36:46;5.80;;;2.58;;
42294;SDS011;27947;47.556;18.718;2023-07-02T20:39:13;6.10;;;2.10;;
42294;SDS011;27947;47.556;18.718;2023-07-02T20:41:38;2.90;;;1.90;;
42294;SDS011;27947;47.556;18.718;2023-07-02T20:46:35;3.53;;;1.90;;
42294;SDS011;27947;47.556;18.718;2023-07-02T20:49:03;4.65;;;2.08;;
42294;SDS011;27947;47.556;18.718;2023-07-02T20:51:30;5.20;;;2.15;;
42294;SDS011;27947;47.556;18.718;2023-07-02T20:53:56;4.50;;;2.50;;
42294;SDS011;27947;47.556;18.718;2023-07-02T20:56:21;4.95;;;2.22;;
42294;SDS011;27947;47.556;18.718;2023-07-02T20:58:47;3.70;;;2.08;;
42294;SDS011;27947;47.556;18.718;2023-07-02T21:01:13;4.53;;;2.63;;
42294;SDS011;27947;47.556;18.718;2023-07-02T21:03:38;4.25;;;2.58;;
42294;SDS011;27947;47.556;18.718;2023-07-02T21:06:07;4.45;;;2.70;;
42294;SDS011;27947;47.556;18.718;2023-07-02T21:08:33;7.78;;;2.90;;
42294;SDS011;27947;47.556;18.718;2023-07-02T21:10:58;5.97;;;2.97;;
42294;SDS011;27947;47.556;18.718;2023-07-02T21:13:24;5.75;;;2.78;;
42294;SDS011;27947;47.556;18.718;2023-07-02T21:15:53;4.88;;;2.78;;
42294;SDS011;27947;47.556;18.718;2023-07-02T21:18:18;3.13;;;2.08;;
42294;SDS011;27947;47.556;18.718;2023-07-02T21:20:44;5.75;;;2.58;;
42294;SDS011;27947;47.556;18.718;2023-07-02T21:23:09;4.18;;;2.72;;
42294;SDS011;27947;47.556;18.718;2023-07-02T21:25:34;6.82;;;2.60;;
42294;SDS011;27947;47.556;18.718;2023-07-02T21:28:00;15.07;;;2.72;;
42294;SDS011;27947;47.556;18.718;2023-07-02T21:30:25;5.28;;;2.72;;
42294;SDS011;27947;47.556;18.718;2023-07-02T21:32:50;4.80;;;2.47;;
42294;SDS011;27947;47.556;18.718;2023-07-02T21:35:16;7.32;;;3.10;;
42294;SDS011;27947;47.556;18.718;2023-07-02T21:37:41;4.85;;;2.83;;
42294;SDS011;27947;47.556;18.718;2023-07-02T21:40:07;5.50;;;2.95;;
42294;SDS011;27947;47.556;18.718;2023-07-02T21:42:32;6.15;;;3.15;;
42294;SDS011;27947;47.556;18.718;2023-07-02T21:44:57;6.38;;;2.83;;
42294;SDS011;27947;47.556;18.718;2023-07-02T21:47:23;7.25;;;2.95;;
42294;SDS011;27947;47.556;18.718;2023-07-02T21:49:54;4.53;;;2.88;;
42294;SDS011;27947;47.556;18.718;2023-07-02T21:52:19;9.15;;;2.88;;
42294;SDS011;27947;47.556;18.718;2023-07-02T21:54:44;10.18;;;3.42;;
42294;SDS011;27947;47.556;18.718;2023-07-02T21:57:10;4.75;;;2.80;;
42294;SDS011;27947;47.556;18.718;2023-07-02T21:59:35;5.82;;;3.00;;
42294;SDS011;27947;47.556;18.718;2023-07-02T22:02:00;7.63;;;3.13;;
42294;SDS011;27947;47.556;18.718;2023-07-02T22:04:26;7.85;;;2.97;;
42294;SDS011;27947;47.556;18.718;2023-07-02T22:06:51;5.75;;;2.97;;
42294;SDS011;27947;47.556;18.718;2023-07-02T22:09:16;5.93;;;3.25;;
42294;SDS011;27947;47.556;18.718;2023-07-02T22:11:42;7.95;;;3.05;;
42294;SDS011;27947;47.556;18.718;2023-07-02T22:14:07;4.38;;;2.75;;
42294;SDS011;27947;47.556;18.718;2023-07-02T22:16:32;7.03;;;3.20;;
42294;SDS011;27947;47.556;18.718;2023-07-02T22:18:58;5.63;;;3.10;;
42294;SDS011;27947;47.556;18.718;2023-07-02T22:21:23;5.28;;;3.10;;
42294;SDS011;27947;47.556;18.718;2023-07-02T22:23:48;7.20;;;3.20;;
42294;SDS011;27947;47.556;18.718;2023-07-02T22:26:14;6.18;;;3.22;;
42294;SDS011;27947;47.556;18.718;2023-07-02T22:28:39;4.60;;;3.13;;
42294;SDS011;27947;47.556;18.718;2023-07-02T22:31:04;5.00;;;3.33;;
42294;SDS011;27947;47.556;18.718;2023-07-02T22:33:30;6.13;;;3.08;;
42294;SDS011;27947;47.556;18.718;2023-07-02T22:35:56;7.63;;;3.33;;
42294;SDS011;27947;47.556;18.718;2023-07-02T22:38:21;6.53;;;2.97;;
42294;SDS011;27947;47.556;18.718;2023-07-02T22:40:47;5.97;;;3.35;;
42294;SDS011;27947;47.556;18.718;2023-07-02T22:43:12;6.03;;;3.30;;
42294;SDS011;27947;47.556;18.718;2023-07-02T22:45:37;4.60;;;2.97;;
42294;SDS011;27947;47.556;18.718;2023-07-02T22:48:03;5.50;;;3.40;;
42294;SDS011;27947;47.556;18.718;2023-07-02T22:50:28;6.53;;;3.20;;
42294;SDS011;27947;47.556;18.718;2023-07-02T22:52:54;6.18;;;3.30;;
42294;SDS011;27947;47.556;18.718;2023-07-02T22:55:19;6.35;;;3.20;;
42294;SDS011;27947;47.556;18.718;2023-07-02T22:57:44;5.00;;;2.80;;
42294;SDS011;27947;47.556;18.718;2023-07-02T23:00:11;4.47;;;2.88;;
42294;SDS011;27947;47.556;18.718;2023-07-02T23:02:38;5.10;;;2.83;;
42294;SDS011;27947;47.556;18.718;2023-07-02T23:05:11;6.43;;;2.83;;
42294;SDS011;27947;47.556;18.718;2023-07-02T23:07:36;6.93;;;3.25;;
42294;SDS011;27947;47.556;18.718;2023-07-02T23:10:03;7.38;;;3.50;;
42294;SDS011;27947;47.556;18.718;2023-07-02T23:12:28;5.22;;;2.97;;
42294;SDS011;27947;47.556;18.718;2023-07-02T23:14:53;6.95;;;3.10;;
42294;SDS011;27947;47.556;18.718;2023-07-02T23:17:19;6.38;;;3.45;;
42294;SDS011;27947;47.556;18.718;2023-07-02T23:19:49;11.68;;;3.45;;
42294;SDS011;27947;47.556;18.718;2023-07-02T23:22:14;6.78;;;3.22;;
42294;SDS011;27947;47.556;18.718;2023-07-02T23:24:40;6.82;;;3.30;;
42294;SDS011;27947;47.556;18.718;2023-07-02T23:27:06;4.35;;;2.80;;
42294;SDS011;27947;47.556;18.718;2023-07-02T23:29:34;6.07;;;3.28;;